Weather at Centennial Airport

Public forecast

Using degrees Fahrenheit for public forecast. Weather courtesy of forecast.io.

Current aviation weather report (METAR) for Centennial Airport

Report is more than 6 hours old.

2022/11/14 14:53 (retrieved 2 years ago)

KAPA 141453Z 17005KT 10SM FEW080 FEW200 M07/M11 A3008 RMK AO2 SLP233 T10671111 53010

Aviation forecast (TAF) for Centennial Airport

Forecast is more than 12 hours old.

2023/02/22 20:18 Ammendment (retrieved 1 year ago)

TAF AMD KAPA 222016Z 2220/2318 03007KT 4SM -SHSN SCT010 OVC020 TEMPO 2221/2224 1SM -SN BKN010 FM230000 04005KT 5SM BR VCSH SCT010 BKN015 FM230300 VRB04KT P6SM SCT005 SCT010 FM231100 VRB06KT P6SM FEW010 FEW060